createdAt,value
2023-02-21T00:02:42.414Z,29.45
2023-02-21T00:08:13.626Z,30.60
2023-02-21T00:13:44.688Z,26.42
2023-02-21T00:19:19.336Z,25.52
2023-02-21T00:22:04.811Z,31.25
2023-02-21T00:24:50.597Z,30.02
2023-02-21T00:27:36.021Z,29.45
2023-02-21T00:30:21.817Z,27.52
2023-02-21T00:35:52.927Z,29.92
2023-02-21T00:38:38.650Z,31.27
2023-02-21T00:41:24.798Z,32.83
2023-02-21T00:44:10.582Z,34.45
2023-02-21T00:46:56.580Z,35.30
2023-02-21T00:49:42.357Z,33.92
2023-02-21T00:52:28.346Z,37.60
2023-02-21T00:55:14.551Z,36.67
2023-02-21T00:58:00.379Z,38.03
2023-02-21T01:03:31.548Z,36.83
2023-02-21T01:09:04.734Z,36.60
2023-02-21T01:11:51.419Z,36.15
2023-02-21T01:14:37.513Z,33.75
2023-02-21T01:17:23.295Z,33.40
2023-02-21T01:22:54.456Z,30.95
2023-02-21T01:28:26.450Z,29.35
2023-02-21T01:31:12.262Z,37.58
2023-02-21T01:34:00.078Z,34.65
2023-02-21T01:36:46.870Z,31.00
2023-02-21T01:39:32.454Z,39.65
2023-02-21T01:42:18.801Z,32.83
2023-02-21T01:45:06.797Z,32.88
2023-02-21T01:47:52.983Z,30.25
2023-02-21T01:50:46.754Z,27.13
2023-02-21T01:53:37.968Z,31.23
2023-02-21T01:56:28.463Z,30.42
2023-02-21T01:59:17.935Z,30.08
2023-02-21T02:02:13.450Z,35.70
2023-02-21T02:05:00.671Z,34.85
2023-02-21T02:07:46.458Z,32.05
2023-02-21T02:13:42.600Z,33.20
2023-02-21T02:16:19.079Z,29.48
2023-02-21T02:18:54.925Z,30.27
2023-02-21T02:22:01.989Z,33.92
2023-02-21T02:24:37.042Z,36.83
2023-02-21T02:27:16.276Z,38.10
2023-02-21T02:30:24.979Z,38.63
2023-02-21T02:33:16.108Z,34.47
2023-02-21T02:35:56.263Z,35.50
2023-02-21T02:38:50.600Z,36.13
2023-02-21T02:41:25.086Z,35.10
2023-02-21T02:43:57.800Z,33.43
2023-02-21T02:46:34.971Z,32.80
2023-02-21T02:49:14.572Z,31.45
2023-02-21T02:51:41.722Z,28.40
2023-02-21T02:54:08.714Z,31.42
2023-02-21T02:56:37.129Z,31.90
2023-02-21T02:59:33.631Z,31.48
2023-02-21T03:02:06.155Z,32.25
2023-02-21T03:04:53.936Z,31.13
2023-02-21T03:07:48.683Z,32.65
2023-02-21T03:10:25.456Z,30.60
2023-02-21T03:13:18.416Z,31.20
2023-02-21T03:16:19.183Z,31.33
2023-02-21T03:18:51.726Z,29.92
2023-02-21T03:21:33.032Z,30.60
2023-02-21T03:24:04.660Z,29.38
2023-02-21T03:26:36.366Z,27.58
2023-02-21T03:29:04.996Z,28.70
2023-02-21T03:31:42.084Z,28.80
2023-02-21T03:34:09.275Z,28.65
2023-02-21T03:36:38.177Z,28.65
2023-02-21T03:39:05.626Z,29.08
2023-02-21T03:41:32.624Z,28.27
2023-02-21T03:44:00.589Z,29.55
2023-02-21T03:46:27.561Z,24.40
2023-02-21T03:48:54.685Z,26.67
2023-02-21T03:51:21.729Z,27.77
2023-02-21T03:53:48.783Z,31.17
2023-02-21T03:56:15.833Z,31.55
2023-02-21T03:58:42.874Z,32.42
2023-02-21T04:01:09.959Z,30.60
2023-02-21T04:03:36.915Z,31.13
2023-02-21T04:06:05.498Z,31.48
2023-02-21T04:08:32.494Z,31.55
2023-02-21T04:10:59.545Z,33.30
2023-02-21T04:13:26.689Z,29.17
2023-02-21T04:15:53.692Z,32.65
2023-02-21T04:18:20.887Z,31.85
2023-02-21T04:20:48.345Z,33.20
2023-02-21T04:23:22.562Z,33.30
2023-02-21T04:25:49.608Z,28.52
2023-02-21T04:28:16.756Z,32.03
2023-02-21T04:30:43.802Z,32.03
2023-02-21T04:33:10.846Z,32.95
2023-02-21T04:35:37.740Z,30.58
2023-02-21T04:38:04.998Z,31.30
2023-02-21T04:40:32.037Z,30.35
2023-02-21T04:42:59.036Z,32.08
2023-02-21T04:45:26.225Z,31.63
2023-02-21T04:47:53.334Z,30.88
2023-02-21T04:50:20.379Z,30.67
2023-02-21T04:52:48.147Z,31.05
2023-02-21T04:55:16.112Z,32.05
2023-02-21T04:57:43.158Z,29.30
2023-02-21T05:00:11.434Z,31.98
2023-02-21T05:02:38.483Z,35.45
2023-02-21T05:05:05.768Z,35.17
2023-02-21T05:07:32.827Z,37.80
2023-02-21T05:09:59.934Z,35.80
2023-02-21T05:12:26.874Z,31.17
2023-02-21T05:14:54.024Z,36.17
2023-02-21T05:17:21.168Z,45.58
2023-02-21T05:19:48.324Z,42.03
2023-02-21T05:22:20.676Z,39.15
2023-02-21T05:24:49.226Z,56.47
2023-02-21T05:27:19.594Z,58.03
2023-02-21T05:29:51.660Z,57.13
2023-02-21T05:32:25.176Z,59.63
2023-02-21T05:34:52.173Z,43.13
2023-02-21T05:37:21.428Z,35.83
2023-02-21T05:39:49.208Z,31.13
2023-02-21T05:42:16.315Z,27.85
2023-02-21T05:44:47.669Z,31.20
2023-02-21T05:47:15.531Z,31.95
2023-02-21T05:49:43.083Z,30.27
2023-02-21T05:52:14.849Z,37.33
2023-02-21T05:54:42.113Z,40.22
2023-02-21T05:57:09.199Z,36.08
2023-02-21T05:59:37.721Z,36.50
2023-02-21T06:02:04.806Z,30.25
2023-02-21T06:04:31.922Z,34.05
2023-02-21T06:06:58.858Z,36.50
2023-02-21T06:09:25.954Z,33.10
2023-02-21T06:11:57.105Z,34.33
2023-02-21T06:14:24.505Z,32.65
2023-02-21T06:16:51.760Z,32.05
2023-02-21T06:19:19.420Z,31.70
2023-02-21T06:21:46.976Z,34.13
2023-02-21T06:24:14.332Z,31.88
2023-02-21T06:26:42.547Z,36.03
2023-02-21T06:29:11.344Z,33.95
2023-02-21T06:31:38.664Z,36.90
2023-02-21T06:34:07.277Z,35.67
2023-02-21T06:36:35.809Z,34.80
2023-02-21T06:39:04.089Z,35.35
2023-02-21T06:41:31.752Z,36.40
2023-02-21T06:43:59.884Z,32.28
2023-02-21T06:46:29.906Z,35.40
2023-02-21T06:48:57.164Z,32.72
2023-02-21T06:51:29.742Z,28.27
2023-02-21T06:53:58.557Z,36.08
2023-02-21T06:56:26.471Z,36.78
2023-02-21T06:58:53.629Z,36.65
2023-02-21T07:01:21.327Z,34.42
2023-02-21T07:03:48.382Z,37.28
2023-02-21T07:06:15.743Z,34.50
2023-02-21T07:08:42.778Z,37.35
2023-02-21T07:11:10.799Z,41.72
2023-02-21T07:13:38.154Z,40.40
2023-02-21T07:16:05.818Z,38.33
2023-02-21T07:18:33.070Z,36.40
2023-02-21T07:21:00.474Z,38.97
2023-02-21T07:23:28.540Z,40.42
2023-02-21T07:25:55.589Z,36.17
2023-02-21T07:28:22.738Z,38.33
2023-02-21T07:30:49.738Z,38.17
2023-02-21T07:33:16.724Z,41.97
2023-02-21T07:35:44.079Z,40.10
2023-02-21T07:38:11.129Z,36.58
2023-02-21T07:40:38.071Z,40.20
2023-02-21T07:43:05.067Z,46.30
2023-02-21T07:45:32.268Z,45.70
2023-02-21T07:47:59.421Z,45.13
2023-02-21T07:50:26.420Z,42.72
2023-02-21T07:52:53.507Z,44.90
2023-02-21T07:55:21.893Z,52.08
2023-02-21T07:57:49.048Z,48.17
2023-02-21T08:00:16.336Z,49.00
2023-02-21T08:02:48.914Z,48.55
2023-02-21T08:05:17.448Z,45.55
2023-02-21T08:07:45.014Z,47.75
2023-02-21T08:10:13.642Z,55.30
2023-02-21T08:12:40.685Z,58.83
2023-02-21T08:15:08.241Z,59.25
2023-02-21T08:17:35.348Z,52.00
2023-02-21T08:20:02.803Z,61.20
2023-02-21T08:22:29.750Z,60.55
2023-02-21T08:24:56.886Z,63.08
2023-02-21T08:27:24.140Z,67.45
2023-02-21T08:29:52.105Z,69.57
2023-02-21T08:32:20.202Z,65.57
2023-02-21T08:34:48.967Z,73.18
2023-02-21T08:37:20.347Z,74.28
2023-02-21T08:39:48.331Z,69.50
2023-02-21T08:42:15.479Z,68.70
2023-02-21T08:44:46.989Z,64.97
